Agonistis — SVBC3 — position and weather

sailwx.info

Track history (hours):
 
Tides and Currents Weather Stations Pressure Air Temp Water Temp Dewpoint Dewpoint Depression Visibility Wind Speed Wind Dir Waves Ship Positions

Agonistis

Last reported at 2016-Dec-17 14:05 UTC. Time now 2017-Jan-17 19:24 UTC.
Position S 29°09' E 033°44'.
Warning: this ship's position is 31 days out of date.

Length 196 m; draft 13.6 m.

Type: Cargo ship. MMSI: 241048000.

Date/timePositionNaut miles runAvg speedWind from/ knotsBaromVisibWave heightAir tempDewpointWater temp
2016-Dec-17 14:05S 29°09' E 033°44'713.0
2016-Dec-17 13:33S 29°11' E 033°36'1312.9
2016-Dec-17 12:33S 29°15' E 033°22'1312.5
2016-Dec-17 11:29S 29°19' E 033°07'2412.1
2016-Dec-17 09:28S 29°25' E 032°40'3411.3
2016-Dec-17 06:27S 29°36' E 032°03'9 9.9
2016-Dec-17 05:33S 29°38' E 031°53'1010.1
2016-Dec-17 04:33S 29°41' E 031°42'1211.5
2016-Dec-17 03:33S 29°44' E 031°29'1312.5
2016-Dec-17 02:33S 29°47' E 031°16'1111.4
2016-Dec-17 01:33S 29°52' E 031°04'1 1.2
2016-Dec-17 00:31S 29°52' E 031°02'0 0.0
2016-Dec-16 23:31S 29°52' E 031°02'0 0.0
2016-Dec-16 22:31S 29°52' E 031°02'0 0.0
2016-Dec-16 21:31S 29°52' E 031°02'0 0.0
2016-Dec-16 20:31S 29°52' E 031°02'0 0.0
2016-Dec-16 19:31S 29°52' E 031°02'0 0.0
2016-Dec-16 18:31S 29°52' E 031°02'0 0.0
2016-Dec-16 17:31S 29°52' E 031°02'0 0.0
2016-Dec-16 16:31S 29°52' E 031°02'0 0.0
2016-Dec-16 15:31S 29°52' E 031°02'1 0.9
2016-Dec-16 14:33S 29°53' E 031°03'7 7.0
2016-Dec-16 13:34S 29°47' E 031°08'2 1.9
2016-Dec-16 12:33S 29°46' E 031°10'0 0.0
2016-Dec-16 11:33S 29°46' E 031°10'0 0.0
2016-Dec-16 10:33S 29°46' E 031°10'0 0.0
2016-Dec-16 09:33S 29°46' E 031°10'0 0.0
2016-Dec-16 08:33S 29°46' E 031°10'1 1.0
2016-Dec-16 07:33S 29°47' E 031°09'6 6.3
2016-Dec-16 06:33S 29°52' E 031°07'1111.2
2016-Dec-16 05:33S 30°04' E 031°05'1211.7
2016-Dec-16 04:33S 30°15' E 031°04'10 9.6
2016-Dec-16 03:33S 30°25' E 031°02'11 9.5
2016-Dec-16 02:24S 30°35' E 030°57'9 9.8
2016-Dec-16 01:30S 30°43' E 030°53'9 9.8
2016-Dec-16 00:33S 30°52' E 030°49'10 9.9
2016-Dec-15 23:31S 31°01' E 030°44'1010.1
2016-Dec-15 22:32S 31°10' E 030°40'  
2016-Dec-13 03:03S 34°18' E 018°05'1611.0
2016-Dec-13 01:33S 34°02' E 018°01'  
Track history (hours):
 
Tides and Currents Weather Stations Pressure Air Temp Water Temp Dewpoint Dewpoint Depression Visibility Wind Speed Wind Dir Waves Ship Positions

Agonistis

Last reported at 2016-Dec-17 14:05 UTC. Time now 2017-Jan-17 19:24 UTC.
Position S 29°09' E 033°44'.
Warning: this ship's position is 31 days out of date.

Length 196 m; draft 13.6 m.

Type: Cargo ship. MMSI: 241048000.

Date/timePositionNaut miles runAvg speedWind from/ knotsBaromVisibWave heightAir tempDewpointWater temp
2016-Dec-17 14:05S 29°09' E 033°44'713.0
2016-Dec-17 13:33S 29°11' E 033°36'1312.9
2016-Dec-17 12:33S 29°15' E 033°22'1312.5
2016-Dec-17 11:29S 29°19' E 033°07'2412.1
2016-Dec-17 09:28S 29°25' E 032°40'3411.3
2016-Dec-17 06:27S 29°36' E 032°03'9 9.9
2016-Dec-17 05:33S 29°38' E 031°53'1010.1
2016-Dec-17 04:33S 29°41' E 031°42'1211.5
2016-Dec-17 03:33S 29°44' E 031°29'1312.5
2016-Dec-17 02:33S 29°47' E 031°16'1111.4
2016-Dec-17 01:33S 29°52' E 031°04'1 1.2
2016-Dec-17 00:31S 29°52' E 031°02'0 0.0
2016-Dec-16 23:31S 29°52' E 031°02'0 0.0
2016-Dec-16 22:31S 29°52' E 031°02'0 0.0
2016-Dec-16 21:31S 29°52' E 031°02'0 0.0
2016-Dec-16 20:31S 29°52' E 031°02'0 0.0
2016-Dec-16 19:31S 29°52' E 031°02'0 0.0
2016-Dec-16 18:31S 29°52' E 031°02'0 0.0
2016-Dec-16 17:31S 29°52' E 031°02'0 0.0
2016-Dec-16 16:31S 29°52' E 031°02'0 0.0
2016-Dec-16 15:31S 29°52' E 031°02'1 0.9
2016-Dec-16 14:33S 29°53' E 031°03'7 7.0
2016-Dec-16 13:34S 29°47' E 031°08'2 1.9
2016-Dec-16 12:33S 29°46' E 031°10'0 0.0
2016-Dec-16 11:33S 29°46' E 031°10'0 0.0
2016-Dec-16 10:33S 29°46' E 031°10'0 0.0
2016-Dec-16 09:33S 29°46' E 031°10'0 0.0
2016-Dec-16 08:33S 29°46' E 031°10'1 1.0
2016-Dec-16 07:33S 29°47' E 031°09'6 6.3
2016-Dec-16 06:33S 29°52' E 031°07'1111.2
2016-Dec-16 05:33S 30°04' E 031°05'1211.7
2016-Dec-16 04:33S 30°15' E 031°04'10 9.6
2016-Dec-16 03:33S 30°25' E 031°02'11 9.5
2016-Dec-16 02:24S 30°35' E 030°57'9 9.8
2016-Dec-16 01:30S 30°43' E 030°53'9 9.8
2016-Dec-16 00:33S 30°52' E 030°49'10 9.9
2016-Dec-15 23:31S 31°01' E 030°44'1010.1
2016-Dec-15 22:32S 31°10' E 030°40'  
2016-Dec-13 03:03S 34°18' E 018°05'1611.0
2016-Dec-13 01:33S 34°02' E 018°01'  

Dump ship's entire track history